Time;durP1;ratioP1;P1;durP2;ratioP2;P2;SDS_P1;SDS_P2;PMS_P1;PMS_P2;Temp;Humidity;BMP_temperature;BMP_pressure;BME280_temperature;BME280_humidity;BME280_pressure;Samples;Min_cycle;Max_cycle;Signal;HPM_P1;HPM_P2
2023/05/31 00:01:07;;;;;;;3.47;1.70;;;;;;;13.60;49.58;100601.72;10548341;28;20778;-59
2023/05/31 00:06:12;;;;;;;2.70;1.48;;;;;;;13.68;50.15;100601.22;10542590;27;20499;-59
2023/05/31 00:11:14;;;;;;;2.78;1.42;;;;;;;13.90;49.77;100593.72;10528368;28;20495;-60
2023/05/31 00:16:16;;;;;;;3.60;1.70;;;;;;;13.84;49.90;100586.19;10521100;27;20044;-59
2023/05/31 00:21:37;;;;;;;3.67;1.65;;;;;;;13.76;49.78;100598.97;10543901;27;20040;-60
2023/05/31 00:26:39;;;;;;;3.13;1.80;;;;;;;13.56;50.09;100596.72;10539761;28;20039;-59
2023/05/31 00:31:42;;;;;;;3.72;1.80;;;;;;;13.35;50.56;100598.03;10542313;28;20047;-59
2023/05/31 00:36:44;;;;;;;3.13;1.73;;;;;;;13.30;50.73;100598.28;10557219;27;20499;-59
2023/05/31 00:41:46;;;;;;;2.15;1.30;;;;;;;13.35;51.07;100606.72;10526813;28;20043;-59
2023/05/31 00:46:48;;;;;;;2.13;1.48;;;;;;;13.26;51.09;100606.44;10538048;28;20418;-59
2023/05/31 00:51:50;;;;;;;2.95;1.55;;;;;;;13.02;51.56;100608.75;10544847;28;20039;-60
2023/05/31 00:56:52;;;;;;;3.90;1.63;;;;;;;13.08;51.50;100607.53;10524643;28;20079;-59
2023/05/31 01:01:57;;;;;;;3.33;1.85;;;;;;;13.11;51.60;100602.13;10545463;28;20043;-59
2023/05/31 01:07:02;;;;;;;2.80;1.70;;;;;;;13.07;51.76;100601.44;10524091;28;20036;-59
2023/05/31 01:12:31;;;;;;;4.65;1.98;;;;;;;12.75;53.43;100598.09;10532568;28;20093;-59
2023/05/31 01:17:41;;;;;;;3.33;1.55;;;;;;;12.71;52.66;100593.94;10527524;28;20052;-59
2023/05/31 01:23:01;;;;;;;2.72;1.73;;;;;;;12.57;54.25;100593.91;10548625;28;20055;-59
2023/05/31 01:28:07;;;;;;;4.30;1.70;;;;;;;12.67;53.37;100596.84;10542387;28;20048;-59
2023/05/31 01:33:12;;;;;;;3.90;1.90;;;;;;;12.87;53.23;100597.38;10526145;27;20126;-59
2023/05/31 01:38:14;;;;;;;3.03;1.70;;;;;;;12.94;53.03;100596.06;10507797;28;20050;-59
2023/05/31 01:43:17;;;;;;;4.00;2.00;;;;;;;12.83;53.17;100595.88;10556049;27;20054;-59
2023/05/31 01:48:19;;;;;;;2.67;1.63;;;;;;;12.89;53.26;100598.13;10539202;28;20419;-59
2023/05/31 01:53:23;;;;;;;4.35;1.90;;;;;;;12.65;53.49;100607.44;10526221;28;20051;-60
2023/05/31 01:58:27;;;;;;;5.32;1.50;;;;;;;12.29;54.25;100600.81;10522748;28;20051;-59
2023/05/31 02:03:30;;;;;;;4.00;1.80;;;;;;;12.14;54.51;100592.84;10517382;28;20051;-59
2023/05/31 02:08:32;;;;;;;3.50;1.70;;;;;;;11.75;55.01;100599.41;10543420;28;20051;-59
2023/05/31 02:13:35;;;;;;;6.18;1.80;;;;;;;11.64;55.34;100614.88;10527785;28;20134;-59
2023/05/31 02:18:38;;;;;;;4.07;1.63;;;;;;;11.48;55.94;100606.13;10552118;28;20066;-59
2023/05/31 02:23:41;;;;;;;4.00;1.92;;;;;;;11.61;55.80;100621.09;10566944;27;20392;-59
2023/05/31 02:28:44;;;;;;;3.10;1.67;;;;;;;11.76;55.71;100611.59;10534845;28;20066;-60
2023/05/31 02:33:47;;;;;;;2.67;1.65;;;;;;;11.72;56.09;100604.81;10570153;27;20047;-60
2023/05/31 02:38:49;;;;;;;6.18;2.00;;;;;;;11.64;56.43;100615.69;10556436;28;20071;-60
2023/05/31 02:43:51;;;;;;;2.72;1.60;;;;;;;11.60;56.75;100611.53;10557110;28;20044;-60
2023/05/31 02:48:53;;;;;;;3.15;1.90;;;;;;;11.61;57.05;100612.41;10557432;27;20116;-60
2023/05/31 02:53:55;;;;;;;3.88;1.88;;;;;;;11.55;57.34;100604.84;10535240;27;20048;-60
2023/05/31 02:58:59;;;;;;;3.75;1.90;;;;;;;11.63;57.52;100606.16;10527150;27;20047;-59
2023/05/31 03:04:12;;;;;;;4.25;1.95;;;;;;;11.67;57.26;100607.69;10530245;27;20048;-60
2023/05/31 03:09:16;;;;;;;2.80;1.67;;;;;;;11.76;57.53;100614.22;10512118;27;20036;-60
2023/05/31 03:14:19;;;;;;;3.65;2.13;;;;;;;11.73;57.23;100609.13;10529629;28;20035;-59
2023/05/31 03:19:23;;;;;;;4.07;2.10;;;;;;;11.88;57.20;100605.69;10519674;28;20062;-60
2023/05/31 03:24:28;;;;;;;3.10;1.67;;;;;;;12.02;56.91;100604.00;10550460;28;20329;-59
2023/05/31 03:29:33;;;;;;;5.47;1.95;;;;;;;12.01;57.06;100604.91;10514850;28;20100;-59
2023/05/31 03:34:36;;;;;;;4.38;2.10;;;;;;;12.11;56.91;100607.88;10548007;28;20043;-59
2023/05/31 03:39:38;;;;;;;5.10;1.85;;;;;;;12.26;56.51;100607.03;10546698;27;20101;-60
2023/05/31 03:44:41;;;;;;;4.45;2.03;;;;;;;12.36;56.38;100610.84;10533729;28;20048;-60
2023/05/31 03:49:43;;;;;;;4.72;1.80;;;;;;;12.44;56.30;100613.88;10531603;28;20056;-60
2023/05/31 03:54:46;;;;;;;3.90;2.08;;;;;;;12.57;56.01;100614.91;10531550;28;20062;-60
2023/05/31 03:59:49;;;;;;;4.78;2.00;;;;;;;12.25;56.10;100618.47;10513586;28;20585;-60
2023/05/31 04:04:52;;;;;;;4.78;2.30;;;;;;;11.90;56.55;100619.53;10527367;28;20046;-60
2023/05/31 04:09:54;;;;;;;3.50;1.95;;;;;;;11.83;56.79;100624.28;10545951;27;20139;-59
2023/05/31 04:14:56;;;;;;;4.90;2.05;;;;;;;13.40;55.89;100616.97;10545393;28;20122;-60
2023/05/31 04:19:58;;;;;;;3.35;1.88;;;;;;;16.14;50.80;100622.31;10525277;28;20044;-60
2023/05/31 04:25:02;;;;;;;3.22;1.70;;;;;;;18.40;46.84;100611.88;10528811;28;20605;-60
2023/05/31 04:30:09;;;;;;;3.92;2.15;;;;;;;19.64;44.61;100613.78;10520262;27;20153;-60
2023/05/31 04:35:12;;;;;;;4.72;2.05;;;;;;;20.94;42.53;100609.06;10525357;28;20036;-60
2023/05/31 04:40:20;;;;;;;5.43;1.75;;;;;;;22.08;40.95;100606.22;10517252;28;20044;-60
2023/05/31 04:45:23;;;;;;;4.35;1.90;;;;;;;22.67;39.45;100593.19;10562606;27;20079;-60
2023/05/31 04:50:26;;;;;;;3.75;1.92;;;;;;;23.40;38.49;100592.81;10520038;28;20039;-60
2023/05/31 04:55:31;;;;;;;4.95;1.90;;;;;;;24.15;37.08;100593.84;10547544;28;20487;-61
2023/05/31 05:00:39;;;;;;;3.28;1.70;;;;;;;25.31;35.77;100586.41;10524118;28;20059;-60
2023/05/31 05:05:50;;;;;;;3.67;2.00;;;;;;;26.26;33.82;100588.13;10558584;27;20040;-60
2023/05/31 05:10:52;;;;;;;2.65;1.58;;;;;;;26.96;33.07;100589.63;10544455;28;20127;-61
2023/05/31 05:15:54;;;;;;;3.00;1.50;;;;;;;27.16;32.34;100598.88;10512700;28;20047;-60
2023/05/31 05:20:58;;;;;;;2.50;1.50;;;;;;;28.08;31.33;100586.75;10527213;28;20044;-61
2023/05/31 05:26:03;;;;;;;3.03;1.67;;;;;;;27.03;30.90;100585.22;10526298;28;20048;-61
2023/05/31 05:31:05;;;;;;;2.83;1.63;;;;;;;23.78;34.16;100602.19;10527546;28;20613;-60
2023/05/31 05:36:11;;;;;;;5.88;1.77;;;;;;;21.52;36.98;100616.94;10553397;27;20046;-60
2023/05/31 05:41:19;;;;;;;4.95;1.90;;;;;;;20.00;38.61;100626.53;10509380;28;20569;-61
2023/05/31 05:46:21;;;;;;;2.92;1.58;;;;;;;19.07;39.79;100631.06;10521611;28;20139;-60
2023/05/31 05:51:23;;;;;;;4.13;2.05;;;;;;;18.69;40.78;100633.34;10517113;28;20044;-59
2023/05/31 05:56:26;;;;;;;4.20;1.88;;;;;;;18.24;41.86;100634.47;10518948;28;20892;-60
2023/05/31 06:01:32;;;;;;;3.47;1.60;;;;;;;17.92;42.17;100641.41;10528603;28;20051;-59
2023/05/31 06:06:38;;;;;;;5.32;2.00;;;;;;;17.64;43.36;100637.47;10526313;28;20047;-59
2023/05/31 06:11:40;;;;;;;3.50;1.80;;;;;;;17.51;43.68;100644.66;10525309;27;20051;-59
2023/05/31 06:16:42;;;;;;;5.20;2.13;;;;;;;17.16;44.51;100641.19;10561066;27;20053;-59
2023/05/31 06:21:46;;;;;;;4.25;1.77;;;;;;;17.32;44.10;100645.22;10530821;28;20060;-59
2023/05/31 06:26:49;;;;;;;3.22;1.65;;;;;;;17.36;45.10;100644.06;10527281;28;20781;-59
2023/05/31 06:31:52;;;;;;;3.55;1.70;;;;;;;17.34;45.26;100645.97;10532908;28;20039;-59
2023/05/31 06:36:56;;;;;;;3.08;1.48;;;;;;;17.26;44.81;100640.38;10510319;28;20055;-60
2023/05/31 06:41:59;;;;;;;4.30;1.80;;;;;;;17.47;44.54;100632.63;10553309;27;20051;-60
2023/05/31 06:47:19;;;;;;;3.85;1.75;;;;;;;17.84;44.09;100636.75;10549657;28;20142;-60
2023/05/31 06:52:40;;;;;;;3.22;1.63;;;;;;;17.64;43.86;100630.38;10553774;28;20052;-60
2023/05/31 06:58:10;;;;;;;3.35;1.45;;;;;;;18.10;43.59;100630.22;10536157;27;20138;-60
2023/05/31 07:03:14;;;;;;;2.63;1.50;;;;;;;18.74;42.92;100623.22;10474152;28;20130;-60
2023/05/31 07:08:17;;;;;;;3.75;1.88;;;;;;;19.25;42.10;100618.91;10459059;28;20056;-60
2023/05/31 07:13:51;;;;;;;4.20;1.50;;;;;;;19.67;40.51;100610.84;10446042;28;20049;-60
2023/05/31 07:18:54;;;;;;;2.72;1.45;;;;;;;20.09;40.05;100600.00;10463383;28;20443;-60
2023/05/31 07:23:57;;;;;;;3.17;1.63;;;;;;;21.47;39.11;100595.28;10451058;28;20045;-60
2023/05/31 07:28:59;;;;;;;4.45;1.63;;;;;;;23.27;34.62;100591.50;10459534;28;20048;-61
2023/05/31 07:34:01;;;;;;;3.55;1.50;;;;;;;24.42;35.14;100568.69;10464401;28;20040;-61
2023/05/31 07:39:05;;;;;;;2.72;1.50;;;;;;;25.44;33.79;100567.16;10458563;28;20047;-61
2023/05/31 07:44:07;;;;;;;2.78;1.60;;;;;;;26.15;33.16;100556.31;10458670;28;20397;-61
2023/05/31 07:49:09;;;;;;;3.75;1.58;;;;;;;25.94;32.39;100556.91;10460078;28;20063;-61
2023/05/31 07:54:11;;;;;;;2.20;1.40;;;;;;;25.89;31.54;100554.75;10466774;28;20052;-61
2023/05/31 07:59:13;;;;;;;2.30;1.30;;;;;;;26.41;31.28;100552.31;10458536;28;20109;-61
2023/05/31 08:04:15;;;;;;;2.53;1.50;;;;;;;27.15;29.69;100546.19;10546740;28;20061;-61
2023/05/31 08:09:18;;;;;;;2.67;1.38;;;;;;;27.74;29.86;100540.84;10546360;28;20051;-60
2023/05/31 08:14:20;;;;;;;2.97;1.48;;;;;;;28.03;28.75;100538.09;10531482;28;20062;-61
2023/05/31 08:19:22;;;;;;;2.13;1.30;;;;;;;27.21;28.74;100531.19;10543440;27;20036;-61
2023/05/31 08:24:24;;;;;;;4.13;1.40;;;;;;;26.97;28.53;100528.72;10546558;28;20047;-61
2023/05/31 08:29:26;;;;;;;2.78;1.60;;;;;;;27.05;28.32;100529.47;10540951;28;20126;-60
2023/05/31 08:34:28;;;;;;;2.67;1.35;;;;;;;26.66;28.73;100526.16;10547226;28;20047;-61
2023/05/31 08:39:30;;;;;;;2.85;1.40;;;;;;;26.86;28.10;100519.25;10541838;27;20043;-60
2023/05/31 08:44:33;;;;;;;1.83;1.13;;;;;;;26.63;26.37;100523.81;10545267;28;20052;-59
2023/05/31 08:49:36;;;;;;;2.95;1.40;;;;;;;26.31;27.81;100527.56;10543515;28;20043;-59
2023/05/31 08:54:38;;;;;;;3.50;1.30;;;;;;;26.07;27.52;100518.84;10545504;27;20487;-59
2023/05/31 08:59:41;;;;;;;1.92;1.17;;;;;;;26.30;27.50;100517.03;10540088;28;20051;-59
2023/05/31 09:04:43;;;;;;;2.42;1.40;;;;;;;25.71;27.18;100516.66;10548324;28;20054;-59
2023/05/31 09:09:45;;;;;;;1.83;1.17;;;;;;;25.40;27.26;100510.44;10542939;28;20048;-58
2023/05/31 09:14:48;;;;;;;2.65;1.40;;;;;;;25.85;26.21;100507.06;10547891;28;20040;-58
2023/05/31 09:19:52;;;;;;;1.60;1.00;;;;;;;26.20;26.14;100505.69;10542323;28;20400;-58
2023/05/31 09:24:59;;;;;;;1.92;1.00;;;;;;;26.48;26.04;100496.09;10547606;28;20063;-59
2023/05/31 09:30:05;;;;;;;3.05;1.33;;;;;;;26.50;25.24;100481.50;10536078;28;20064;-59
2023/05/31 09:35:15;;;;;;;2.45;1.17;;;;;;;26.66;25.39;100480.53;10547217;28;20059;-59
2023/05/31 09:40:28;;;;;;;2.22;1.10;;;;;;;26.33;25.12;100479.09;10563465;27;20047;-60
2023/05/31 09:45:30;;;;;;;2.17;1.10;;;;;;;26.38;25.52;100471.38;10532728;28;20383;-60
2023/05/31 09:50:32;;;;;;;4.57;1.45;;;;;;;25.99;25.50;100467.97;10546060;28;20130;-60
2023/05/31 09:55:42;;;;;;;2.17;1.10;;;;;;;25.79;24.53;100459.53;10548483;28;20054;-60
2023/05/31 10:00:47;;;;;;;1.83;1.20;;;;;;;25.98;25.06;100463.63;10531054;28;20164;-60
2023/05/31 10:05:49;;;;;;;1.23;1.13;;;;;;;26.05;25.52;100467.25;10551290;28;20054;-60
2023/05/31 10:10:55;;;;;;;1.67;1.00;;;;;;;25.43;25.29;100451.16;10550351;28;20058;-60
2023/05/31 10:16:05;;;;;;;2.17;1.30;;;;;;;25.06;24.53;100465.16;10542990;27;20051;-59
2023/05/31 10:21:22;;;;;;;1.52;1.10;;;;;;;26.12;24.60;100461.00;10549030;27;20100;-59
2023/05/31 10:26:51;;;;;;;1.23;1.00;;;;;;;26.05;24.36;100459.22;10543002;27;20040;-59
2023/05/31 10:31:58;;;;;;;1.48;1.05;;;;;;;25.47;25.25;100446.28;10507124;28;21219;-59
2023/05/31 10:37:03;;;;;;;1.73;1.00;;;;;;;25.29;26.00;100441.16;10541427;28;20047;-59
2023/05/31 10:42:29;;;;;;;1.85;1.10;;;;;;;25.28;25.77;100436.81;10527152;28;20062;-59
2023/05/31 10:47:40;;;;;;;1.33;0.90;;;;;;;25.19;24.57;100431.66;10523225;27;20385;-60
2023/05/31 10:52:43;;;;;;;2.03;1.20;;;;;;;25.01;25.92;100421.19;10548470;27;20487;-59
2023/05/31 10:57:50;;;;;;;2.83;1.40;;;;;;;25.31;25.65;100409.69;10525742;28;20051;-60
2023/05/31 11:02:56;;;;;;;1.77;1.10;;;;;;;24.94;26.88;100422.88;10552592;28;20083;-59
2023/05/31 11:07:58;;;;;;;1.42;0.70;;;;;;;24.62;25.71;100422.94;10542981;28;20040;-60
2023/05/31 11:13:04;;;;;;;1.98;0.98;;;;;;;24.09;26.24;100429.66;10564914;27;20158;-59
2023/05/31 11:18:15;;;;;;;1.98;1.10;;;;;;;24.04;26.92;100423.91;10540234;28;20046;-60
2023/05/31 11:23:17;;;;;;;1.60;1.02;;;;;;;24.14;27.38;100421.13;10548032;28;20149;-60
2023/05/31 11:28:19;;;;;;;1.85;0.90;;;;;;;23.92;26.73;100421.75;10542869;28;20478;-59
2023/05/31 11:33:22;;;;;;;2.70;1.23;;;;;;;23.88;26.75;100423.91;10550159;28;20501;-59
2023/05/31 11:38:25;;;;;;;3.47;1.10;;;;;;;23.74;27.22;100418.38;10528651;28;20070;-59
2023/05/31 11:43:27;;;;;;;1.75;1.30;;;;;;;24.06;27.31;100413.09;10552026;27;20055;-60
2023/05/31 11:48:39;;;;;;;1.10;1.00;;;;;;;24.31;27.09;100405.94;10544505;27;20047;-60
2023/05/31 11:53:41;;;;;;;2.45;1.10;;;;;;;24.19;27.50;100408.09;10550165;27;20044;-60
2023/05/31 11:58:46;;;;;;;1.08;0.77;;;;;;;24.25;27.43;100397.56;10542852;27;20050;-60
2023/05/31 12:03:48;;;;;;;3.45;1.08;;;;;;;24.39;27.47;100390.69;10552092;28;20689;-59
2023/05/31 12:08:54;;;;;;;1.52;1.05;;;;;;;24.81;26.87;100393.16;10517501;28;20100;-59
2023/05/31 12:13:58;;;;;;;2.03;1.10;;;;;;;24.61;27.32;100370.44;10551831;27;20043;-59
2023/05/31 12:19:00;;;;;;;1.95;1.08;;;;;;;24.46;27.69;100372.16;10543467;27;20047;-59
2023/05/31 12:24:10;;;;;;;1.50;1.00;;;;;;;24.88;27.21;100359.34;10525524;28;20897;-60
2023/05/31 12:29:13;;;;;;;2.22;1.20;;;;;;;24.83;27.28;100359.06;10514217;28;20534;-59
2023/05/31 12:34:17;;;;;;;1.50;1.00;;;;;;;25.04;26.92;100352.09;10531708;27;20416;-59
2023/05/31 12:39:21;;;;;;;1.15;0.80;;;;;;;24.76;27.48;100344.69;10542061;28;20526;-59
2023/05/31 12:44:25;;;;;;;1.45;0.90;;;;;;;24.91;26.99;100334.94;10548482;28;20488;-60
2023/05/31 12:49:30;;;;;;;1.40;1.00;;;;;;;25.04;25.33;100337.88;10543230;28;20048;-60
2023/05/31 12:54:37;;;;;;;1.70;1.05;;;;;;;24.91;25.40;100340.28;10548636;27;20044;-59
2023/05/31 12:59:39;;;;;;;2.83;1.08;;;;;;;24.88;26.12;100333.44;10544344;28;20036;-60
2023/05/31 13:04:41;;;;;;;1.77;1.20;;;;;;;24.87;25.72;100333.63;10513637;28;20067;-60
2023/05/31 13:09:43;;;;;;;2.65;1.10;;;;;;;24.68;25.94;100337.50;10543404;28;20055;-59
2023/05/31 13:14:45;;;;;;;2.10;1.00;;;;;;;24.83;26.35;100324.28;10549300;28;20047;-59
2023/05/31 13:19:47;;;;;;;1.45;0.90;;;;;;;24.52;26.39;100317.97;10543330;28;20047;-61
2023/05/31 13:25:09;;;;;;;1.90;1.00;;;;;;;24.55;27.20;100312.31;10539398;28;20141;-60
2023/05/31 13:30:12;;;;;;;1.38;0.98;;;;;;;24.41;26.86;100305.00;10549639;28;20498;-60
2023/05/31 13:35:15;;;;;;;1.77;1.20;;;;;;;24.31;26.87;100307.84;10560630;28;20052;-60
2023/05/31 13:40:18;;;;;;;1.75;1.10;;;;;;;24.45;26.84;100298.31;10518819;28;20043;-60
2023/05/31 13:45:20;;;;;;;1.63;1.10;;;;;;;24.53;26.10;100284.91;10540962;28;20330;-59
2023/05/31 13:50:22;;;;;;;1.15;0.90;;;;;;;24.45;25.56;100291.09;10539224;28;20051;-59
2023/05/31 13:55:24;;;;;;;1.83;1.08;;;;;;;24.66;25.89;100278.00;10526585;28;20050;-60
2023/05/31 14:00:26;;;;;;;1.42;0.73;;;;;;;24.90;26.10;100282.41;10547976;28;20051;-60
2023/05/31 14:05:28;;;;;;;1.77;0.95;;;;;;;25.13;26.24;100269.91;10542686;28;20506;-60
2023/05/31 14:10:30;;;;;;;1.50;0.93;;;;;;;25.29;25.64;100263.59;10542814;28;20796;-59
2023/05/31 14:15:32;;;;;;;2.83;1.40;;;;;;;25.03;25.40;100258.59;10543843;28;20044;-60
2023/05/31 14:20:34;;;;;;;1.52;1.00;;;;;;;24.96;25.93;100260.31;10529233;28;20048;-60
2023/05/31 14:25:36;;;;;;;1.98;1.10;;;;;;;25.11;24.93;100255.88;10553532;28;20040;-59
2023/05/31 14:30:38;;;;;;;2.42;1.17;;;;;;;25.15;25.58;100259.88;10536466;27;20047;-60
2023/05/31 14:35:40;;;;;;;1.33;1.00;;;;;;;25.12;25.44;100246.00;10550689;28;20495;-58
2023/05/31 14:40:42;;;;;;;1.48;1.08;;;;;;;24.93;25.22;100247.28;10548751;27;20050;-58
2023/05/31 14:45:44;;;;;;;3.70;1.23;;;;;;;24.98;25.81;100251.09;10551762;28;20412;-58
2023/05/31 14:50:46;;;;;;;1.92;1.00;;;;;;;24.87;26.09;100248.00;10549655;27;20059;-58
2023/05/31 14:55:48;;;;;;;1.42;0.90;;;;;;;25.00;26.61;100245.56;10553074;27;20051;-58
2023/05/31 15:00:50;;;;;;;3.45;1.17;;;;;;;25.19;26.44;100245.13;10551002;28;20055;-59
2023/05/31 15:05:52;;;;;;;1.73;1.10;;;;;;;24.88;26.59;100238.94;10546393;27;20480;-58
2023/05/31 15:10:55;;;;;;;1.90;1.10;;;;;;;24.85;26.62;100237.47;10531307;28;20055;-58
2023/05/31 15:15:58;;;;;;;1.95;1.05;;;;;;;25.00;27.03;100221.47;10546192;28;20479;-59
2023/05/31 15:21:01;;;;;;;2.80;1.40;;;;;;;24.77;26.70;100229.50;10550867;27;20495;-59
2023/05/31 15:26:05;;;;;;;2.78;1.20;;;;;;;24.69;26.66;100234.84;10547774;28;20076;-59
2023/05/31 15:31:08;;;;;;;2.17;1.00;;;;;;;24.80;26.46;100242.50;10543781;27;20104;-58
2023/05/31 15:36:10;;;;;;;2.22;1.00;;;;;;;24.85;27.14;100229.44;10543324;27;20040;-59
2023/05/31 15:41:12;;;;;;;2.85;1.20;;;;;;;24.97;27.09;100222.69;10547738;28;20051;-58
2023/05/31 15:46:14;;;;;;;1.77;1.10;;;;;;;25.21;26.54;100219.00;10518271;27;20035;-58
2023/05/31 15:51:16;;;;;;;2.83;1.23;;;;;;;25.25;27.16;100206.09;10545582;28;21094;-58
2023/05/31 15:56:18;;;;;;;2.92;1.05;;;;;;;25.34;26.54;100207.72;10542260;28;20036;-59
2023/05/31 16:01:20;;;;;;;3.00;1.00;;;;;;;24.97;26.70;100214.66;10523666;28;20503;-58
2023/05/31 16:06:23;;;;;;;1.00;0.90;;;;;;;25.00;26.80;100205.41;10536511;28;20048;-58
2023/05/31 16:11:25;;;;;;;3.97;1.40;;;;;;;25.05;26.93;100193.19;10542960;28;20055;-58
2023/05/31 16:16:27;;;;;;;1.08;0.88;;;;;;;24.96;26.50;100196.09;10538979;27;20088;-58
2023/05/31 16:21:30;;;;;;;1.55;1.00;;;;;;;25.02;26.51;100193.53;10542317;28;20047;-59
2023/05/31 16:26:32;;;;;;;0.90;0.77;;;;;;;24.87;26.11;100184.63;10544275;28;20040;-59
2023/05/31 16:31:34;;;;;;;2.35;1.65;;;;;;;25.17;26.32;100180.22;10547018;28;20128;-59
2023/05/31 16:36:37;;;;;;;2.08;1.08;;;;;;;25.14;26.25;100180.59;10525145;28;20044;-59
2023/05/31 16:41:39;;;;;;;3.03;1.30;;;;;;;24.95;25.93;100170.34;10522192;28;20046;-59
2023/05/31 16:46:42;;;;;;;2.13;1.25;;;;;;;24.84;26.12;100165.41;10539954;28;20040;-58
2023/05/31 16:51:44;;;;;;;2.15;1.05;;;;;;;24.68;26.64;100173.50;10511719;28;20449;-58
2023/05/31 16:56:46;;;;;;;3.55;1.10;;;;;;;24.74;26.49;100164.78;10540212;28;20047;-58
2023/05/31 17:01:48;;;;;;;1.60;1.20;;;;;;;24.60;25.99;100166.34;10540920;27;20048;-58
2023/05/31 17:06:50;;;;;;;2.03;1.10;;;;;;;24.51;26.50;100172.75;10520729;28;20156;-58
2023/05/31 17:11:54;;;;;;;2.78;1.00;;;;;;;24.62;26.44;100163.50;10541260;28;20044;-58
2023/05/31 17:16:56;;;;;;;1.48;0.98;;;;;;;24.47;25.97;100168.75;10534749;28;20040;-58
2023/05/31 17:21:58;;;;;;;1.25;0.90;;;;;;;24.28;26.37;100166.53;10542545;28;20044;-57
2023/05/31 17:27:00;;;;;;;2.00;1.15;;;;;;;24.14;26.80;100170.72;10522028;28;20052;-58
2023/05/31 17:32:02;;;;;;;2.45;1.10;;;;;;;24.16;26.78;100165.25;10542232;28;20071;-59
2023/05/31 17:37:05;;;;;;;2.13;1.25;;;;;;;24.12;27.30;100159.38;10539687;28;20058;-61
2023/05/31 17:42:07;;;;;;;3.25;1.00;;;;;;;23.90;27.25;100160.09;10541225;28;20644;-60
2023/05/31 17:47:09;;;;;;;1.15;1.00;;;;;;;23.82;27.48;100164.66;10524865;28;20051;-60
2023/05/31 17:52:11;;;;;;;4.13;1.10;;;;;;;23.83;27.65;100156.47;10541012;28;20709;-60
2023/05/31 17:57:13;;;;;;;1.98;1.30;;;;;;;23.80;27.60;100161.31;10532266;28;20454;-60
2023/05/31 18:02:15;;;;;;;1.05;0.93;;;;;;;23.90;28.18;100152.09;10550736;27;20040;-60
2023/05/31 18:07:17;;;;;;;1.33;1.10;;;;;;;23.73;28.33;100150.47;10552291;27;20066;-59
2023/05/31 18:12:19;;;;;;;2.92;1.20;;;;;;;23.53;28.41;100154.53;10547222;27;20560;-60
2023/05/31 18:17:21;;;;;;;2.15;1.17;;;;;;;23.58;28.43;100151.31;10551813;28;20043;-59
2023/05/31 18:22:23;;;;;;;2.95;1.10;;;;;;;23.49;28.79;100161.22;10549876;27;20040;-60
2023/05/31 18:27:25;;;;;;;2.45;1.30;;;;;;;23.24;29.16;100164.84;10547232;27;20043;-59
2023/05/31 18:32:29;;;;;;;2.58;1.10;;;;;;;23.09;29.76;100162.00;10551049;27;20048;-59
2023/05/31 18:37:33;;;;;;;2.45;1.20;;;;;;;22.96;30.40;100167.00;10545645;27;20050;-60
2023/05/31 18:42:36;;;;;;;1.90;1.08;;;;;;;22.85;30.31;100175.31;10526905;28;20055;-60
2023/05/31 18:47:38;;;;;;;1.63;1.00;;;;;;;22.80;30.46;100177.63;10549366;28;20066;-60
2023/05/31 18:52:40;;;;;;;3.30;1.27;;;;;;;22.52;31.04;100178.88;10547348;28;20047;-60
2023/05/31 18:57:42;;;;;;;2.20;0.85;;;;;;;22.43;31.23;100178.00;10547805;27;20062;-60
2023/05/31 19:02:45;;;;;;;3.35;1.40;;;;;;;22.24;31.37;100182.75;10546925;28;20409;-60
2023/05/31 19:07:47;;;;;;;2.15;1.10;;;;;;;22.08;32.18;100180.03;10548558;27;20522;-59
2023/05/31 19:12:49;;;;;;;2.00;1.10;;;;;;;21.96;32.36;100183.94;10549203;27;20384;-60
2023/05/31 19:17:51;;;;;;;1.60;1.00;;;;;;;21.78;32.52;100195.47;10548704;28;20058;-60
2023/05/31 19:22:58;;;;;;;1.60;1.00;;;;;;;21.55;33.17;100188.16;10548299;28;20089;-60
2023/05/31 19:28:00;;;;;;;2.72;1.20;;;;;;;21.32;33.53;100197.59;10547423;28;20047;-60
2023/05/31 19:33:02;;;;;;;1.67;1.15;;;;;;;21.16;33.61;100195.63;10543876;27;20044;-60
2023/05/31 19:38:04;;;;;;;2.03;1.20;;;;;;;21.04;34.03;100203.00;10547593;27;20039;-60
2023/05/31 19:43:06;;;;;;;1.88;1.23;;;;;;;20.86;34.79;100215.44;10526888;28;20039;-59
2023/05/31 19:48:08;;;;;;;1.63;1.00;;;;;;;20.62;35.26;100215.16;10546229;27;20457;-59
2023/05/31 19:53:10;;;;;;;2.08;1.20;;;;;;;20.33;35.51;100219.78;10523624;28;20700;-59
2023/05/31 19:58:13;;;;;;;1.70;1.15;;;;;;;20.06;36.02;100225.88;10550349;28;20043;-60
2023/05/31 20:03:15;;;;;;;1.85;1.08;;;;;;;19.87;36.33;100228.59;10514444;28;20055;-59
2023/05/31 20:08:17;;;;;;;2.60;1.17;;;;;;;19.66;36.86;100235.03;10544396;27;20058;-60
2023/05/31 20:13:19;;;;;;;1.75;1.20;;;;;;;19.35;37.69;100242.31;10541050;28;20657;-59
2023/05/31 20:18:22;;;;;;;1.85;1.05;;;;;;;19.34;37.85;100237.97;10546946;28;20051;-59
2023/05/31 20:23:24;;;;;;;3.58;1.20;;;;;;;19.13;37.92;100243.44;10547323;27;20620;-59
2023/05/31 20:28:26;;;;;;;2.80;1.00;;;;;;;19.02;38.63;100251.50;10548571;28;20058;-60
2023/05/31 20:33:29;;;;;;;2.15;1.20;;;;;;;18.78;39.12;100253.66;10545813;28;20043;-60
2023/05/31 20:38:31;;;;;;;2.45;1.20;;;;;;;18.72;39.27;100248.91;10548585;28;20512;-60
2023/05/31 20:43:33;;;;;;;2.42;1.10;;;;;;;18.48;39.81;100251.06;10542619;28;20056;-59
2023/05/31 20:48:35;;;;;;;2.45;1.30;;;;;;;18.31;40.26;100249.03;10545626;27;20051;-60
2023/05/31 20:53:37;;;;;;;2.70;1.20;;;;;;;18.27;40.45;100248.47;10523454;27;20473;-59
2023/05/31 20:58:39;;;;;;;2.40;1.25;;;;;;;18.17;40.76;100249.34;10537859;27;20637;-60
2023/05/31 21:03:41;;;;;;;2.83;1.27;;;;;;;18.06;41.08;100247.63;10540243;28;20774;-59
2023/05/31 21:08:44;;;;;;;1.55;0.98;;;;;;;17.82;41.63;100258.50;10545449;28;20097;-59
2023/05/31 21:13:47;;;;;;;2.47;1.35;;;;;;;17.71;41.74;100253.25;10541418;28;20059;-59
2023/05/31 21:18:50;;;;;;;2.45;1.27;;;;;;;17.73;41.97;100261.91;10526486;28;20044;-59
2023/05/31 21:23:52;;;;;;;2.95;1.52;;;;;;;17.53;42.37;100261.91;10537520;28;20510;-58
2023/05/31 21:28:54;;;;;;;2.05;1.15;;;;;;;17.37;43.12;100275.56;10543914;28;20051;-59
2023/05/31 21:33:56;;;;;;;1.50;1.10;;;;;;;17.31;43.07;100270.75;10550526;28;20051;-60
2023/05/31 21:38:58;;;;;;;2.80;1.30;;;;;;;17.19;43.30;100270.91;10553896;27;20083;-59
2023/05/31 21:44:00;;;;;;;2.65;1.40;;;;;;;17.15;43.65;100272.97;10549774;28;20063;-59
2023/05/31 21:49:02;;;;;;;3.55;1.38;;;;;;;17.14;43.59;100276.56;10552946;27;20059;-59
2023/05/31 21:54:04;;;;;;;3.10;1.10;;;;;;;16.97;44.12;100277.09;10519934;27;20044;-59
2023/05/31 21:59:06;;;;;;;2.97;1.30;;;;;;;16.77;44.30;100285.78;10553871;28;20100;-60
2023/05/31 22:04:08;;;;;;;2.25;1.30;;;;;;;16.48;45.00;100285.44;10549271;28;20055;-59
2023/05/31 22:09:10;;;;;;;2.13;1.30;;;;;;;16.32;45.30;100289.38;10552035;28;20505;-59
2023/05/31 22:14:17;;;;;;;1.73;1.10;;;;;;;16.29;45.79;100295.72;10548804;27;20031;-59
2023/05/31 22:19:25;;;;;;;3.73;1.30;;;;;;;16.30;45.68;100299.19;10551962;27;20414;-59
2023/05/31 22:24:27;;;;;;;1.67;1.20;;;;;;;16.19;45.91;100303.50;10549484;28;20113;-59
2023/05/31 22:29:29;;;;;;;1.67;1.00;;;;;;;15.91;46.71;100309.22;10547532;27;20229;-59
2023/05/31 22:34:31;;;;;;;2.08;1.30;;;;;;;15.84;47.04;100313.25;10549014;27;21621;-60
2023/05/31 22:39:33;;;;;;;2.30;1.33;;;;;;;15.74;47.19;100301.72;10551737;27;20063;-59
2023/05/31 22:44:38;;;;;;;2.75;1.30;;;;;;;15.61;48.02;100295.72;10538071;27;20047;-59
2023/05/31 22:49:40;;;;;;;2.33;1.38;;;;;;;15.48;47.78;100297.53;10548279;27;20039;-59
2023/05/31 22:54:42;;;;;;;2.20;1.33;;;;;;;15.46;47.91;100280.13;10543878;28;20081;-59
2023/05/31 22:59:44;;;;;;;3.30;1.40;;;;;;;15.30;48.64;100288.34;10546547;28;20060;-58
2023/05/31 23:04:46;;;;;;;1.40;1.13;;;;;;;15.07;48.89;100289.19;10542899;27;20590;-59
2023/05/31 23:09:48;;;;;;;2.55;1.30;;;;;;;14.93;49.40;100290.19;10530457;28;20582;-59
2023/05/31 23:14:50;;;;;;;2.17;1.20;;;;;;;14.92;49.60;100304.28;10522186;27;20042;-59